createdAt,value
2019-04-22T00:00:53.876Z,97828.87
2019-04-22T00:03:36.073Z,97824.22
2019-04-22T00:06:19.057Z,97832.80
2019-04-22T00:08:56.134Z,97825.91
2019-04-22T00:11:38.336Z,97824.11
2019-04-22T00:14:00.756Z,97819.88
2019-04-22T00:16:47.661Z,97810.24
2019-04-22T00:21:46.050Z,97816.20
2019-04-22T00:24:18.786Z,97811.70
2019-04-22T00:26:50.002Z,97811.09
2019-04-22T00:29:42.554Z,97804.70
2019-04-22T00:32:09.254Z,97803.03
2019-04-22T00:34:42.666Z,97794.70
2019-04-22T00:37:23.618Z,97793.56
2019-04-22T00:39:53.912Z,97788.82
2019-04-22T00:42:27.466Z,97783.59
2019-04-22T00:47:32.490Z,97780.13
2019-04-22T00:52:41.962Z,97778.60
2019-04-22T00:55:23.191Z,97781.34
2019-04-22T00:57:51.988Z,97787.17
2019-04-22T01:00:17.711Z,97783.70
2019-04-22T01:02:54.590Z,97775.52
2019-04-22T01:05:27.812Z,97775.87
2019-04-22T01:08:07.048Z,97776.72
2019-04-22T01:10:40.730Z,97770.35
2019-04-22T01:13:13.845Z,97771.88
2019-04-22T01:15:47.010Z,97767.45
2019-04-22T01:18:18.188Z,97781.77
2019-04-22T01:23:26.192Z,97771.11
2019-04-22T01:25:55.119Z,97770.48
2019-04-22T01:28:23.819Z,97769.92
2019-04-22T01:30:51.656Z,97769.41
2019-04-22T01:33:25.989Z,97769.30
2019-04-22T01:36:10.122Z,97763.48
2019-04-22T01:38:46.891Z,97766.28
2019-04-22T01:41:23.376Z,97763.91
2019-04-22T01:46:31.574Z,97757.01
2019-04-22T01:49:02.764Z,97759.25
2019-04-22T01:51:47.145Z,97755.56
2019-04-22T01:54:12.583Z,97761.44
2019-04-22T01:56:40.893Z,97757.05
2019-04-22T01:59:13.995Z,97755.86
2019-04-22T02:01:49.988Z,97754.66
2019-04-22T02:04:25.578Z,97750.01
2019-04-22T02:06:59.166Z,97741.44
2019-04-22T02:09:38.130Z,97748.22
2019-04-22T02:12:05.905Z,97748.06
2019-04-22T02:14:39.622Z,97744.27
2019-04-22T02:17:17.535Z,97739.01
2019-04-22T02:19:50.579Z,97734.65
2019-04-22T02:22:27.553Z,97738.67
2019-04-22T02:24:50.953Z,97733.30
2019-04-22T02:27:29.407Z,97731.78
2019-04-22T02:29:52.362Z,97726.17
2019-04-22T02:32:59.085Z,97724.23
2019-04-22T02:35:19.832Z,97723.70
2019-04-22T02:37:35.911Z,97710.78
2019-04-22T02:40:17.195Z,97709.63
2019-04-22T02:42:52.195Z,97707.34
2019-04-22T02:45:26.829Z,97708.16
2019-04-22T02:47:58.537Z,97704.14
2019-04-22T02:50:45.473Z,97705.56
2019-04-22T02:53:03.647Z,97697.04
2019-04-22T02:55:33.007Z,97695.30
2019-04-22T02:58:06.262Z,97699.69
2019-04-22T03:00:45.910Z,97696.66
2019-04-22T03:03:41.370Z,97694.22
2019-04-22T03:05:56.664Z,97695.71
2019-04-22T03:11:07.374Z,97689.46
2019-04-22T03:13:40.354Z,97694.34
2019-04-22T03:18:53.539Z,97678.05
2019-04-22T03:23:55.722Z,97667.77
2019-04-22T03:28:51.415Z,97659.36
2019-04-22T03:44:49.774Z,97644.02
2019-04-22T03:49:56.454Z,97646.11
2019-04-22T03:55:03.127Z,97640.60
2019-04-22T04:00:08.241Z,97635.36
2019-04-22T04:02:47.366Z,97638.70
2019-04-22T04:05:10.486Z,97641.64
2019-04-22T04:07:55.243Z,97642.50
2019-04-22T04:10:27.818Z,97635.20
2019-04-22T04:15:28.435Z,97631.94
2019-04-22T04:17:57.109Z,97631.98
2019-04-22T04:25:46.565Z,97631.89
2019-04-22T04:28:31.620Z,97631.08
2019-04-22T04:30:48.732Z,97630.36
2019-04-22T04:33:23.545Z,97625.82
2019-04-22T04:35:56.651Z,97621.09
2019-04-22T04:38:32.167Z,97624.19
2019-04-22T04:41:06.109Z,97616.56
2019-04-22T04:46:13.745Z,97614.08
2019-04-22T04:53:58.153Z,97606.48
2019-04-22T04:56:30.410Z,97606.85
2019-04-22T04:59:06.323Z,97609.67
2019-04-22T05:01:30.884Z,97603.05
2019-04-22T05:09:15.118Z,97592.53
2019-04-22T05:11:53.778Z,97604.87
2019-04-22T05:16:46.421Z,97599.75
2019-04-22T05:19:20.849Z,97599.23
2019-04-22T05:21:59.558Z,97596.94
2019-04-22T05:27:08.103Z,97594.16
2019-04-22T05:29:46.430Z,97598.55
2019-04-22T05:32:09.288Z,97604.27
2019-04-22T05:34:40.152Z,97604.67
2019-04-22T05:37:14.720Z,97603.82
2019-04-22T05:39:52.689Z,97596.88
2019-04-22T05:42:17.811Z,97593.45
2019-04-22T05:45:00.852Z,97594.11
2019-04-22T05:47:25.656Z,97592.08
2019-04-22T05:50:00.050Z,97593.56
2019-04-22T05:52:34.142Z,97587.78
2019-04-22T05:55:08.518Z,97587.10
2019-04-22T05:57:38.851Z,97588.04
2019-04-22T06:00:17.459Z,97581.17
2019-04-22T06:05:17.360Z,97570.50
2019-04-22T06:07:52.713Z,97566.96
2019-04-22T06:10:33.439Z,97566.89
2019-04-22T06:13:00.768Z,97566.95
2019-04-22T06:15:34.194Z,97575.36
2019-04-22T06:18:16.205Z,97570.02
2019-04-22T06:21:03.994Z,97572.72
2019-04-22T06:23:34.519Z,97572.00
2019-04-22T06:28:40.703Z,97579.22
2019-04-22T06:31:10.661Z,97581.78
2019-04-22T06:33:40.502Z,97575.25
2019-04-22T06:36:20.996Z,97579.88
2019-04-22T06:38:59.039Z,97582.54
2019-04-22T06:41:21.311Z,97585.22
2019-04-22T06:43:59.809Z,97580.58
2019-04-22T06:46:27.474Z,97575.00
2019-04-22T06:49:05.622Z,97571.42
2019-04-22T06:51:33.114Z,97565.09
2019-04-22T06:54:11.655Z,97568.00
2019-04-22T06:56:35.633Z,97568.78
2019-04-22T06:59:14.829Z,97566.70
2019-04-22T07:04:19.831Z,97556.75
2019-04-22T07:06:56.535Z,97558.38
2019-04-22T07:09:33.530Z,97545.77
2019-04-22T07:11:58.828Z,97538.39
2019-04-22T07:14:30.292Z,97541.17
2019-04-22T07:17:07.335Z,97537.70
2019-04-22T07:22:19.847Z,97537.41
2019-04-22T07:27:22.442Z,97535.32
2019-04-22T07:35:02.011Z,97519.07
2019-04-22T07:37:39.001Z,97518.56
2019-04-22T07:40:02.426Z,97514.47
2019-04-22T07:45:17.829Z,97506.94
2019-04-22T07:47:44.367Z,97501.42
2019-04-22T07:52:51.895Z,97495.87
2019-04-22T07:55:27.653Z,97498.66
2019-04-22T07:58:01.727Z,97502.10
2019-04-22T08:00:38.766Z,97497.99
2019-04-22T08:03:14.896Z,97499.80
2019-04-22T08:05:52.192Z,97495.91
2019-04-22T08:08:21.497Z,97502.16
2019-04-22T08:10:52.254Z,97496.38
2019-04-22T08:13:25.398Z,97492.62
2019-04-22T08:16:10.739Z,97494.23
2019-04-22T08:21:07.652Z,97487.21
2019-04-22T08:23:50.905Z,97479.34
2019-04-22T08:26:05.486Z,97482.11
2019-04-22T08:28:46.132Z,97483.27
2019-04-22T08:31:25.117Z,97474.08
2019-04-22T08:34:12.160Z,97472.33
2019-04-22T08:36:26.287Z,97459.44
2019-04-22T08:41:32.094Z,97461.66
2019-04-22T08:46:56.202Z,97451.17
2019-04-22T08:49:12.989Z,97453.58
2019-04-22T08:51:42.423Z,97437.48
2019-04-22T08:54:17.747Z,97435.62
2019-04-22T08:56:52.418Z,97437.35
2019-04-22T08:59:22.206Z,97437.89
2019-04-22T09:02:04.880Z,97436.85
2019-04-22T09:04:30.896Z,97422.66
2019-04-22T09:12:14.305Z,97444.97
2019-04-22T09:14:45.798Z,97416.20
2019-04-22T09:17:21.397Z,97410.69
2019-04-22T09:19:55.898Z,97402.58
2019-04-22T09:22:26.198Z,97389.14
2019-04-22T09:24:57.513Z,97385.67
2019-04-22T09:27:41.257Z,97391.52
2019-04-22T09:30:13.200Z,97393.20
2019-04-22T09:32:45.486Z,97390.84
2019-04-22T09:35:16.255Z,97390.52
2019-04-22T09:38:19.198Z,97380.42
2019-04-22T09:40:21.787Z,97382.62
2019-04-22T09:42:56.017Z,97381.64
2019-04-22T09:45:27.523Z,97377.56
2019-04-22T09:48:08.315Z,97368.97
2019-04-22T09:53:08.089Z,97380.63
2019-04-22T09:55:41.726Z,97357.34
2019-04-22T09:58:16.270Z,97370.47
2019-04-22T10:01:24.560Z,97356.55
2019-04-22T10:03:56.437Z,97350.99
2019-04-22T10:09:22.707Z,97352.77
2019-04-22T10:11:32.582Z,97348.84
2019-04-22T10:16:39.335Z,97336.45
2019-04-22T10:19:11.063Z,97334.89
2019-04-22T10:21:54.525Z,97327.91
2019-04-22T10:24:13.712Z,97330.89
2019-04-22T10:29:43.581Z,97321.67
2019-04-22T10:31:55.531Z,97325.81
2019-04-22T10:34:18.750Z,97308.30
2019-04-22T10:36:39.653Z,97304.27
2019-04-22T10:39:12.676Z,97299.33
2019-04-22T10:41:44.473Z,97299.19
2019-04-22T10:44:17.310Z,97296.81
2019-04-22T10:46:49.782Z,97287.83
2019-04-22T10:49:22.397Z,97276.00
2019-04-22T10:51:54.958Z,97281.72
2019-04-22T10:54:27.416Z,97273.30
2019-04-22T10:56:59.151Z,97287.40
2019-04-22T10:59:32.204Z,97263.83
2019-04-22T11:02:05.404Z,97250.97
2019-04-22T11:04:38.662Z,97257.43
2019-04-22T11:07:12.708Z,97249.59
2019-04-22T11:09:52.008Z,97261.10
2019-04-22T11:12:22.369Z,97251.09
2019-04-22T11:14:51.719Z,97250.05
2019-04-22T11:17:23.949Z,97241.14
2019-04-22T11:19:55.666Z,97229.84
2019-04-22T11:22:32.243Z,97240.66
2019-04-22T11:25:01.646Z,97229.39
2019-04-22T11:27:34.898Z,97227.21
2019-04-22T11:30:08.049Z,97222.42
2019-04-22T11:32:51.937Z,97217.45
2019-04-22T11:35:23.856Z,97225.84
2019-04-22T11:37:56.799Z,97217.03
2019-04-22T11:40:35.731Z,97213.50
2019-04-22T11:43:02.112Z,97205.28
2019-04-22T11:45:35.258Z,97203.18
2019-04-22T11:48:09.045Z,97199.41
2019-04-22T11:50:42.105Z,97190.86
2019-04-22T11:53:13.920Z,97198.70
2019-04-22T11:55:46.780Z,97196.00
2019-04-22T11:58:19.056Z,97196.27
2019-04-22T12:00:51.979Z,97185.06
2019-04-22T12:03:25.355Z,97179.23
2019-04-22T12:05:57.804Z,97175.39
2019-04-22T12:08:31.089Z,97171.83
2019-04-22T12:11:05.870Z,97157.02
2019-04-22T12:13:36.150Z,97164.41
2019-04-22T12:16:07.802Z,97169.02
2019-04-22T12:18:39.684Z,97147.09
2019-04-22T12:21:13.026Z,97157.30
2019-04-22T12:23:45.226Z,97145.77
2019-04-22T12:26:19.177Z,97142.08
2019-04-22T12:28:51.073Z,97148.22
2019-04-22T12:31:23.770Z,97135.08
2019-04-22T12:33:57.152Z,97136.35
2019-04-22T12:36:29.084Z,97126.44
2019-04-22T12:39:00.704Z,97122.59
2019-04-22T12:41:34.000Z,97126.47
2019-04-22T12:44:07.327Z,97134.45
2019-04-22T12:46:41.858Z,97125.11
2019-04-22T12:49:14.287Z,97127.91
2019-04-22T12:51:47.328Z,97121.20
2019-04-22T12:54:19.389Z,97104.87
2019-04-22T12:56:51.494Z,97102.64
2019-04-22T12:59:23.605Z,97097.78
2019-04-22T13:01:55.377Z,97087.84
2019-04-22T13:04:28.054Z,97086.52
2019-04-22T13:06:59.929Z,97084.38
2019-04-22T13:09:31.677Z,97078.55
2019-04-22T13:12:03.384Z,97085.94
2019-04-22T13:14:35.056Z,97076.72
2019-04-22T13:17:08.166Z,97072.91
2019-04-22T13:19:40.415Z,97072.09
2019-04-22T13:22:14.532Z,97076.63
2019-04-22T13:24:46.216Z,97067.16
2019-04-22T13:27:19.325Z,97059.05
2019-04-22T13:29:51.109Z,97046.47
2019-04-22T13:32:22.876Z,97043.50
2019-04-22T13:34:57.979Z,97042.31
2019-04-22T13:37:28.618Z,97048.98
2019-04-22T13:40:01.289Z,97043.02
2019-04-22T13:42:35.470Z,97042.59
2019-04-22T13:45:09.706Z,97037.26
2019-04-22T13:48:01.515Z,97028.12
2019-04-22T13:50:52.191Z,97026.52
2019-04-22T13:55:52.787Z,97020.19
2019-04-22T13:58:14.669Z,97013.61
2019-04-22T14:00:34.473Z,97017.77
2019-04-22T14:03:26.680Z,97017.27
2019-04-22T14:06:00.819Z,97009.98
2019-04-22T14:08:33.634Z,97008.83
2019-04-22T14:11:19.518Z,97002.20
2019-04-22T14:13:39.615Z,97001.39
2019-04-22T14:16:13.171Z,96989.82
2019-04-22T14:18:46.077Z,96986.86
2019-04-22T14:21:18.786Z,96982.20
2019-04-22T14:23:50.945Z,96982.88
2019-04-22T14:26:23.104Z,96994.41
2019-04-22T14:28:55.690Z,97003.81
2019-04-22T14:31:28.683Z,96972.58
2019-04-22T14:34:04.956Z,96958.48
2019-04-22T14:36:35.276Z,96963.91
2019-04-22T14:39:10.298Z,96957.90
2019-04-22T14:41:55.960Z,96952.25
2019-04-22T14:45:13.415Z,96953.28
2019-04-22T14:47:13.716Z,96956.70
2019-04-22T14:49:47.488Z,96945.94
2019-04-22T14:52:21.262Z,96942.77
2019-04-22T14:54:47.105Z,96940.50
2019-04-22T14:57:07.348Z,96932.93
2019-04-22T14:59:39.891Z,96933.25
2019-04-22T15:02:13.857Z,96939.44
2019-04-22T15:04:46.003Z,96930.36
2019-04-22T15:07:19.067Z,96926.89
2019-04-22T15:09:52.124Z,96927.78
2019-04-22T15:12:31.029Z,96921.47
2019-04-22T15:14:59.757Z,96915.09
2019-04-22T15:17:47.203Z,96909.40
2019-04-22T15:20:56.618Z,96917.38
2019-04-22T15:23:28.709Z,96912.38
2019-04-22T15:26:02.157Z,96906.09
2019-04-22T15:28:35.440Z,96907.34
2019-04-22T15:31:09.013Z,96895.86
2019-04-22T15:33:45.231Z,96893.63
2019-04-22T15:36:15.308Z,96892.08
2019-04-22T15:38:47.204Z,96888.35
2019-04-22T15:41:18.914Z,96889.69
2019-04-22T15:43:51.956Z,96887.00
2019-04-22T15:46:23.814Z,96877.92
2019-04-22T15:48:55.974Z,96882.06
2019-04-22T15:51:28.876Z,96894.86
2019-04-22T15:54:01.458Z,96872.47
2019-04-22T15:56:34.984Z,96873.38
2019-04-22T15:59:28.703Z,96878.98
2019-04-22T16:01:41.488Z,96866.38
2019-04-22T16:04:14.852Z,96866.38
2019-04-22T16:06:47.271Z,96870.31
2019-04-22T16:09:18.945Z,96864.23
2019-04-22T16:11:51.887Z,96862.69
2019-04-22T16:14:31.211Z,96868.55
2019-04-22T16:16:56.975Z,96857.88
2019-04-22T16:19:28.695Z,96856.16
2019-04-22T16:22:05.627Z,96855.94
2019-04-22T16:24:52.139Z,96867.34
2019-04-22T16:27:26.585Z,96843.20
2019-04-22T16:29:59.279Z,96858.88
2019-04-22T16:32:31.983Z,96841.47
2019-04-22T16:35:04.395Z,96843.08
2019-04-22T16:37:37.072Z,96845.65
2019-04-22T16:40:09.344Z,96840.26
2019-04-22T16:42:48.872Z,96839.36
2019-04-22T16:45:16.075Z,96833.13
2019-04-22T16:47:47.737Z,96836.13
2019-04-22T16:50:20.943Z,96851.44
2019-04-22T16:52:52.683Z,96843.19
2019-04-22T16:55:24.275Z,96841.36
2019-04-22T16:57:56.740Z,96825.47
2019-04-22T17:00:28.901Z,96830.63
2019-04-22T17:03:18.515Z,96827.07
2019-04-22T17:06:13.879Z,96829.64
2019-04-22T17:08:46.679Z,96820.84
2019-04-22T17:11:20.003Z,96823.20
2019-04-22T17:13:53.012Z,96822.30
2019-04-22T17:16:26.265Z,96824.37
2019-04-22T17:18:58.487Z,96826.62
2019-04-22T17:21:30.230Z,96827.88
2019-04-22T17:24:01.858Z,96826.39
2019-04-22T17:26:34.529Z,96825.17
2019-04-22T17:29:08.628Z,96829.38
2019-04-22T17:31:47.679Z,96820.91
2019-04-22T17:34:13.903Z,96827.89
2019-04-22T17:36:46.243Z,96820.91
2019-04-22T17:39:31.638Z,96824.58
2019-04-22T17:42:08.355Z,96820.49
2019-04-22T17:44:48.398Z,96820.74
2019-04-22T17:47:41.055Z,96815.74
2019-04-22T17:50:16.932Z,96814.00
2019-04-22T17:53:03.613Z,96817.12
2019-04-22T17:55:32.214Z,96824.60
2019-04-22T17:58:05.570Z,96820.65
2019-04-22T18:00:30.430Z,96814.70
2019-04-22T18:03:00.807Z,96821.38
2019-04-22T18:05:32.176Z,96819.27
2019-04-22T18:08:11.696Z,96818.78
2019-04-22T18:10:47.664Z,96821.76
2019-04-22T18:13:27.832Z,96821.75
2019-04-22T18:15:57.352Z,96824.42
2019-04-22T18:18:35.534Z,96816.55
2019-04-22T18:20:56.337Z,96821.38
2019-04-22T18:23:20.832Z,96819.02
2019-04-22T18:26:09.890Z,96819.75
2019-04-22T18:28:47.942Z,96819.04
2019-04-22T18:31:12.019Z,96821.90
2019-04-22T18:33:45.197Z,96820.27
2019-04-22T18:36:21.275Z,96820.27
2019-04-22T18:39:00.684Z,96821.16
2019-04-22T18:41:23.766Z,96826.47
2019-04-22T18:44:07.992Z,96822.09
2019-04-22T18:46:39.511Z,96817.84
2019-04-22T18:49:08.225Z,96815.11
2019-04-22T18:51:46.368Z,96823.75
2019-04-22T18:54:36.617Z,96821.70
2019-04-22T18:57:11.051Z,96822.70
2019-04-22T18:59:33.820Z,96821.17
2019-04-22T19:02:07.845Z,96820.13
2019-04-22T19:04:44.339Z,96816.66
2019-04-22T19:07:35.632Z,96810.52
2019-04-22T19:10:11.937Z,96806.33
2019-04-22T19:12:44.254Z,96809.77
2019-04-22T19:15:09.324Z,96803.94
2019-04-22T19:17:59.387Z,96803.73
2019-04-22T19:20:23.802Z,96805.37
2019-04-22T19:22:57.528Z,96799.45
2019-04-22T19:25:17.270Z,96803.62
2019-04-22T19:28:10.139Z,96802.80
2019-04-22T19:30:36.918Z,96802.66
2019-04-22T19:33:10.981Z,96802.21
2019-04-22T19:35:34.994Z,96800.67
2019-04-22T19:38:05.312Z,96796.03
2019-04-22T19:40:58.207Z,96788.58
2019-04-22T19:43:25.763Z,96791.67
2019-04-22T19:45:54.632Z,96792.39
2019-04-22T19:51:11.367Z,96800.37
2019-04-22T19:53:41.384Z,96798.43
2019-04-22T19:56:05.995Z,96794.59
2019-04-22T19:58:37.375Z,96792.74
2019-04-22T20:01:41.762Z,96790.13
2019-04-22T20:04:52.560Z,96791.26
2019-04-22T20:07:11.654Z,96788.38
2019-04-22T20:09:49.398Z,96787.18
2019-04-22T20:12:16.486Z,96783.92
2019-04-22T20:14:51.098Z,96778.69
2019-04-22T20:17:28.671Z,96768.58
2019-04-22T20:20:06.312Z,96778.03
2019-04-22T20:22:30.090Z,96774.73
2019-04-22T20:24:53.792Z,96775.20
2019-04-22T20:27:36.516Z,96775.31
2019-04-22T20:30:13.703Z,96764.88
2019-04-22T20:32:41.273Z,96769.22
2019-04-22T20:35:20.912Z,96763.38
2019-04-22T20:37:50.937Z,96757.98
2019-04-22T20:40:32.006Z,96760.81
2019-04-22T20:43:07.648Z,96766.97
2019-04-22T20:45:36.432Z,96761.48
2019-04-22T20:47:58.832Z,96760.63
2019-04-22T20:50:41.706Z,96755.08
2019-04-22T20:53:19.992Z,96755.53
2019-04-22T20:55:47.882Z,96749.73
2019-04-22T20:58:21.278Z,96746.28
2019-04-22T21:00:47.328Z,96747.58
2019-04-22T21:03:24.366Z,96740.21
2019-04-22T21:05:52.611Z,96743.23
2019-04-22T21:08:38.903Z,96740.59
2019-04-22T21:11:04.403Z,96735.81
2019-04-22T21:13:40.968Z,96739.40
2019-04-22T21:16:23.216Z,96738.69
2019-04-22T21:18:44.181Z,96739.02
2019-04-22T21:21:29.637Z,96750.70
2019-04-22T21:23:48.636Z,96745.80
2019-04-22T21:26:29.712Z,96734.47
2019-04-22T21:29:01.209Z,96741.40
2019-04-22T21:31:52.717Z,96731.97
2019-04-22T21:34:06.628Z,96733.09
2019-04-22T21:36:41.548Z,96738.64
2019-04-22T21:39:15.715Z,96733.55
2019-04-22T21:41:48.647Z,96735.12
2019-04-22T21:44:21.372Z,96739.31
2019-04-22T21:47:03.409Z,96727.95
2019-04-22T21:49:29.534Z,96729.77
2019-04-22T21:51:58.387Z,96726.92
2019-04-22T21:54:45.474Z,96725.89
2019-04-22T21:57:28.236Z,96721.31
2019-04-22T21:59:59.537Z,96721.58
2019-04-22T22:05:00.148Z,96700.25
2019-04-22T22:07:25.131Z,96698.64
2019-04-22T22:10:09.915Z,96692.73
2019-04-22T22:12:48.736Z,96698.02
2019-04-22T22:15:20.265Z,96686.51
2019-04-22T22:17:51.426Z,96688.20
2019-04-22T22:20:25.665Z,96677.05
2019-04-22T22:23:09.162Z,96680.39
2019-04-22T22:25:34.909Z,96689.00
2019-04-22T22:28:21.889Z,96674.16
2019-04-22T22:33:17.382Z,96674.74
2019-04-22T22:35:47.321Z,96676.13
2019-04-22T22:38:19.458Z,96668.70
2019-04-22T22:40:37.923Z,96675.36
2019-04-22T22:43:17.152Z,96665.83
2019-04-22T22:45:48.898Z,96677.41
2019-04-22T22:48:41.669Z,96667.76
2019-04-22T22:51:05.265Z,96671.72
2019-04-22T22:53:45.780Z,96668.75
2019-04-22T22:56:16.022Z,96667.13
2019-04-22T22:58:45.571Z,96667.50
2019-04-22T23:01:28.661Z,96670.97
2019-04-22T23:03:57.028Z,96668.25
2019-04-22T23:06:32.935Z,96672.62
2019-04-22T23:09:05.738Z,96659.66
2019-04-22T23:11:55.057Z,96649.38
2019-04-22T23:14:06.937Z,96659.59
2019-04-22T23:16:31.264Z,96653.97
2019-04-22T23:19:06.662Z,96656.78
2019-04-22T23:21:44.035Z,96640.48
2019-04-22T23:24:44.165Z,96645.97
2019-04-22T23:27:22.813Z,96636.03
2019-04-22T23:30:05.380Z,96633.91
2019-04-22T23:32:40.017Z,96636.41
2019-04-22T23:35:33.873Z,96638.45
2019-04-22T23:38:07.467Z,96628.27
2019-04-22T23:40:44.378Z,96627.91
2019-04-22T23:43:20.831Z,96629.28
2019-04-22T23:45:50.498Z,96621.41
2019-04-22T23:48:17.935Z,96622.73
2019-04-22T23:51:06.071Z,96620.42
2019-04-22T23:53:57.250Z,96611.31
2019-04-22T23:56:07.863Z,96611.61
2019-04-22T23:59:02.229Z,96607.91
